Time;durP1;ratioP1;P1;durP2;ratioP2;P2;SDS_P1;SDS_P2;PMS_P1;PMS_P2;Temp;Humidity;BMP_temperature;BMP_pressure;BME280_temperature;BME280_humidity;BME280_pressure;Samples;Min_cycle;Max_cycle;Signal;HPM_P1;HPM_P2
2021/12/19 00:01:37;;;;;;;;;;;7.50;99.90;;;;;;4905219;29;19927;-81
2021/12/19 00:10:02;;;;;;;;;;;7.50;99.90;;;;;;4890106;29;19942;-80
2021/12/19 00:19:44;;;;;;;;;;;7.60;99.90;;;;;;4898149;29;19931;-84
2021/12/19 00:22:38;;;;;;;;;;;7.60;99.90;;;;;;4886661;29;20036;-79
2021/12/19 00:28:24;;;;;;;;;;;7.60;99.90;;;;;;4997465;28;19930;-81
2021/12/19 00:30:51;;;;;;;;;;;7.60;99.90;;;;;;4983342;28;19929;-79
2021/12/19 00:33:19;;;;;;;;;;;7.60;99.90;;;;;;4998293;28;19934;-81
2021/12/19 00:35:52;;;;;;;;;;;7.60;99.90;;;;;;4997525;28;19926;-80
2021/12/19 00:38:19;;;;;;;;;;;7.50;99.90;;;;;;4981059;28;19930;-81
2021/12/19 00:40:48;;;;;;;;;;;7.50;99.90;;;;;;4983053;28;20367;-79
2021/12/19 00:43:24;;;;;;;;;;;7.50;99.90;;;;;;4964406;28;19926;-80
2021/12/19 00:45:55;;;;;;;;;;;7.60;99.90;;;;;;4972026;28;19926;-82
2021/12/19 00:48:22;;;;;;;;;;;7.50;99.90;;;;;;4999570;28;19945;-83
2021/12/19 00:50:50;;;;;;;;;;;7.50;99.90;;;;;;4991440;28;19932;-82
2021/12/19 00:53:19;;;;;;;;;;;7.60;99.90;;;;;;5002695;28;19933;-82
2021/12/19 00:55:51;;;;;;;;;;;7.60;99.90;;;;;;4982428;28;19930;-81
2021/12/19 01:01:48;;;;;;;;;;;7.50;99.90;;;;;;4989365;28;19932;-80
2021/12/19 01:04:25;;;;;;;;;;;7.50;99.90;;;;;;4979059;28;19933;-82
2021/12/19 01:07:09;;;;;;;;;;;7.50;99.90;;;;;;4996616;28;20379;-81
2021/12/19 01:09:43;;;;;;;;;;;7.50;99.90;;;;;;4983146;28;20030;-81
2021/12/19 01:12:13;;;;;;;;;;;7.60;99.90;;;;;;5001308;28;19926;-80
2021/12/19 01:14:45;;;;;;;;;;;7.50;99.90;;;;;;5010121;28;19930;-79
2021/12/19 01:21:07;;;;;;;;;;;7.60;99.90;;;;;;4986442;28;19933;-80
2021/12/19 01:23:44;;;;;;;;;;;7.50;99.90;;;;;;5002565;28;19926;-79
2021/12/19 01:26:42;;;;;;;;;;;7.50;99.90;;;;;;5017313;28;19930;-79
2021/12/19 01:29:30;;;;;;;;;;;7.60;99.90;;;;;;5007978;28;20384;-79
2021/12/19 01:35:29;;;;;;;;;;;7.40;99.90;;;;;;5009964;28;19926;-79
2021/12/19 01:38:23;;;;;;;;;;;6.70;99.90;;;;;;5025005;28;19926;-79
2021/12/19 01:40:56;;;;;;;;;;;7.40;99.90;;;;;;5007236;28;19933;-80
2021/12/19 01:44:44;;;;;;;;;;;7.40;99.90;;;;;;4981335;28;19937;-79
2021/12/19 01:47:17;;;;;;;;;;;7.40;99.90;;;;;;4987301;28;19940;-79
2021/12/19 01:49:50;;;;;;;;;;;7.40;99.90;;;;;;4986329;28;19933;-79
2021/12/19 01:55:57;;;;;;;;;;;7.30;99.90;;;;;;4993967;28;19928;-80
2021/12/19 01:58:26;;;;;;;;;;;7.20;99.90;;;;;;5004896;28;19933;-79
2021/12/19 02:00:55;;;;;;;;;;;7.10;99.90;;;;;;5006541;28;19941;-79
2021/12/19 02:03:24;;;;;;;;;;;7.10;99.90;;;;;;4989800;28;19927;-79
2021/12/19 02:09:15;;;;;;;;;;;7.00;99.90;;;;;;5011853;28;19926;-79
2021/12/19 02:11:43;;;;;;;;;;;5.60;99.90;;;;;;4996397;28;20301;-79
2021/12/19 02:14:11;;;;;;;;;;;7.00;99.90;;;;;;4988584;28;19926;-79
2021/12/19 02:17:08;;;;;;;;;;;6.90;99.90;;;;;;4997873;28;19936;-79
2021/12/19 02:19:45;;;;;;;;;;;6.90;99.90;;;;;;5015207;28;19940;-79
2021/12/19 02:22:39;;;;;;;;;;;7.00;99.90;;;;;;4991889;28;19910;-79
2021/12/19 02:25:07;;;;;;;;;;;6.90;99.90;;;;;;4997755;28;19929;-79
2021/12/19 02:31:00;;;;;;;;;;;7.00;99.90;;;;;;5014756;28;19910;-79
2021/12/19 02:37:44;;;;;;;;;;;7.00;99.90;;;;;;4999444;28;19924;-79
2021/12/19 02:53:47;;;;;;;;;;;6.90;99.90;;;;;;4971981;28;19926;-79
2021/12/19 02:56:24;;;;;;;;;;;6.90;99.90;;;;;;5001976;28;19926;-79
2021/12/19 02:59:00;;;;;;;;;;;5.40;99.90;;;;;;5011073;28;20348;-79
2021/12/19 03:01:37;;;;;;;;;;;6.80;99.90;;;;;;4997025;28;19932;-78
2021/12/19 03:04:06;;;;;;;;;;;6.80;99.90;;;;;;4994914;28;19930;-80
2021/12/19 03:17:57;;;;;;;;;;;6.90;99.90;;;;;;5005437;28;19918;-81
2021/12/19 03:19:51;;;;;;;;;;;6.90;99.90;;;;;;5028007;28;19936;-80
2021/12/19 03:22:29;;;;;;;;;;;6.90;99.90;;;;;;4995635;28;20266;-79
2021/12/19 03:28:25;;;;;;;;;;;6.90;99.90;;;;;;4994255;28;19940;-79
2021/12/19 03:31:04;;;;;;;;;;;6.90;99.90;;;;;;5010711;28;19925;-79
2021/12/19 03:34:01;;;;;;;;;;;6.90;99.90;;;;;;5009338;28;19926;-78
2021/12/19 03:36:55;;;;;;;;;;;6.80;99.90;;;;;;4996102;28;19994;-79
2021/12/19 03:39:37;;;;;;;;;;;6.80;99.90;;;;;;4994920;28;20441;-79
2021/12/19 03:43:17;;;;;;;;;;;6.80;99.90;;;;;;5012870;28;19936;-79
2021/12/19 03:45:47;;;;;;;;;;;6.80;99.90;;;;;;4997155;28;19934;-79
2021/12/19 03:48:20;;;;;;;;;;;6.80;99.90;;;;;;4995989;28;19936;-79
2021/12/19 04:01:38;;;;;;;;;;;6.80;99.90;;;;;;5089324;28;19931;-80
2021/12/19 04:04:14;;;;;;;;;;;6.80;99.90;;;;;;5086416;28;19925;-79
2021/12/19 04:06:50;;;;;;;;;;;6.80;99.90;;;;;;5086879;28;19924;-80
2021/12/19 04:10:07;;;;;;;;;;;6.80;99.90;;;;;;5058519;28;19947;-80
2021/12/19 04:12:45;;;;;;;;;;;7.10;99.90;;;;;;5080914;28;19925;-81
2021/12/19 04:15:17;;;;;;;;;;;6.90;99.90;;;;;;5079445;28;19929;-80
2021/12/19 04:17:46;;;;;;;;;;;7.10;99.90;;;;;;5073944;28;20394;-80
2021/12/19 04:20:19;;;;;;;;;;;6.90;99.90;;;;;;5068171;28;19925;-80
2021/12/19 04:23:12;;;;;;;;;;;5.50;99.90;;;;;;5066887;28;19935;-79
2021/12/19 04:25:40;;;;;;;;;;;7.10;99.90;;;;;;5072465;28;19925;-80
2021/12/19 04:28:11;;;;;;;;;;;6.80;99.90;;;;;;5089310;28;19925;-79
2021/12/19 04:31:05;;;;;;;;;;;6.80;99.90;;;;;;5069172;28;19925;-79
2021/12/19 04:33:44;;;;;;;;;;;6.80;99.90;;;;;;5068826;28;19919;-80
2021/12/19 04:40:17;;;;;;;;;;;6.80;99.90;;;;;;5066747;28;19925;-80
2021/12/19 04:52:41;;;;;;;;;;;6.80;99.90;;;;;;5066819;28;19929;-79
2021/12/19 04:56:14;;;;;;;;;;;6.80;99.90;;;;;;5068531;28;19935;-80
2021/12/19 05:02:10;;;;;;;;;;;6.90;99.90;;;;;;5066667;28;19925;-80
2021/12/19 05:14:16;;;;;;;;;;;7.00;99.90;;;;;;5070835;28;19928;-79
2021/12/19 05:17:04;;;;;;;;;;;6.90;99.90;;;;;;5074478;28;20144;-79
2021/12/19 05:19:49;;;;;;;;;;;6.80;99.90;;;;;;5074727;28;19931;-79
2021/12/19 05:22:26;;;;;;;;;;;6.80;99.90;;;;;;5058658;28;19928;-80
2021/12/19 05:26:02;;;;;;;;;;;6.80;99.90;;;;;;5062032;28;19931;-79
2021/12/19 05:29:21;;;;;;;;;;;6.80;99.90;;;;;;5072050;28;19929;-79
2021/12/19 05:45:11;;;;;;;;;;;6.60;99.90;;;;;;5050900;28;19925;-79
2021/12/19 05:47:25;;;;;;;;;;;6.60;99.90;;;;;;5050000;28;19939;-79
2021/12/19 05:50:00;;;;;;;;;;;6.60;99.90;;;;;;5048395;28;19925;-79
2021/12/19 05:53:12;;;;;;;;;;;5.30;99.90;;;;;;5050656;28;19936;-79
2021/12/19 05:56:07;;;;;;;;;;;6.50;99.90;;;;;;5035125;28;19925;-79
2021/12/19 05:58:39;;;;;;;;;;;6.50;99.90;;;;;;5070901;28;19929;-79
2021/12/19 06:01:07;;;;;;;;;;;6.50;99.90;;;;;;5029713;28;19929;-79
2021/12/19 06:03:35;;;;;;;;;;;6.40;99.90;;;;;;5031548;28;19931;-79
2021/12/19 06:06:08;;;;;;;;;;;6.40;99.90;;;;;;5050307;28;19925;-79
2021/12/19 06:08:50;;;;;;;;;;;6.40;99.90;;;;;;5036429;28;19935;-79
2021/12/19 06:11:37;;;;;;;;;;;6.40;99.90;;;;;;5050352;28;19931;-79
2021/12/19 06:14:40;;;;;;;;;;;6.30;99.90;;;;;;5047713;28;19936;-79
2021/12/19 06:17:18;;;;;;;;;;;6.40;99.90;;;;;;5027681;28;19940;-79
2021/12/19 06:19:46;;;;;;;;;;;6.90;99.90;;;;;;5029037;28;19936;-79
2021/12/19 06:22:49;;;;;;;;;;;6.30;99.90;;;;;;5029480;28;19926;-79
2021/12/19 06:25:24;;;;;;;;;;;6.30;99.90;;;;;;5014399;28;19926;-79
2021/12/19 06:27:55;;;;;;;;;;;6.40;99.90;;;;;;5050612;28;19929;-80
2021/12/19 06:30:31;;;;;;;;;;;6.30;99.90;;;;;;5049219;28;20134;-79
2021/12/19 06:33:02;;;;;;;;;;;6.30;99.90;;;;;;5050124;28;19932;-79
2021/12/19 06:35:58;;;;;;;;;;;6.20;99.90;;;;;;5033782;28;19925;-80
2021/12/19 06:38:55;;;;;;;;;;;6.20;99.90;;;;;;5050462;28;19925;-79
2021/12/19 06:41:25;;;;;;;;;;;6.20;99.90;;;;;;5051474;28;19925;-79
2021/12/19 06:43:59;;;;;;;;;;;6.30;99.90;;;;;;5052716;28;19920;-80
2021/12/19 06:46:56;;;;;;;;;;;6.20;99.90;;;;;;5052913;28;19936;-80
2021/12/19 06:52:46;;;;;;;;;;;6.30;99.90;;;;;;5029475;28;20111;-79
2021/12/19 06:55:17;;;;;;;;;;;6.30;99.90;;;;;;5026974;28;19936;-80
2021/12/19 06:58:13;;;;;;;;;;;6.30;99.90;;;;;;5051608;28;19939;-78
2021/12/19 07:00:46;;;;;;;;;;;6.30;99.90;;;;;;5068531;28;20373;-79
2021/12/19 07:03:44;;;;;;;;;;;6.40;99.90;;;;;;5068593;28;19925;-79
2021/12/19 07:06:19;;;;;;;;;;;6.40;99.90;;;;;;5047377;28;19925;-79
2021/12/19 07:08:51;;;;;;;;;;;6.30;99.90;;;;;;5052349;28;19931;-80
2021/12/19 07:14:43;;;;;;;;;;;6.30;99.90;;;;;;5060040;28;19925;-79
2021/12/19 07:21:01;;;;;;;;;;;6.30;99.90;;;;;;5066807;28;19916;-79
2021/12/19 07:23:35;;;;;;;;;;;6.30;99.90;;;;;;5050627;28;19931;-79
2021/12/19 07:26:05;;;;;;;;;;;6.30;99.90;;;;;;5051150;28;19925;-80
2021/12/19 07:28:45;;;;;;;;;;;7.60;99.90;;;;;;5055615;28;19936;-79
2021/12/19 07:31:21;;;;;;;;;;;4.70;99.90;;;;;;5051262;28;19925;-79
2021/12/19 07:34:01;;;;;;;;;;;6.20;99.90;;;;;;5042826;28;19935;-79
2021/12/19 07:36:40;;;;;;;;;;;6.20;99.90;;;;;;5058675;28;19921;-79
2021/12/19 07:39:25;;;;;;;;;;;6.20;99.90;;;;;;5058758;28;19935;-81
2021/12/19 07:42:02;;;;;;;;;;;6.20;99.90;;;;;;5056342;28;20168;-81
2021/12/19 07:44:40;;;;;;;;;;;6.40;99.90;;;;;;5050369;28;19929;-80
2021/12/19 07:47:43;;;;;;;;;;;6.10;99.90;;;;;;5050356;28;19921;-79
2021/12/19 07:50:14;;;;;;;;;;;6.10;99.90;;;;;;5053875;28;19929;-79
2021/12/19 07:52:45;;;;;;;;;;;6.20;99.90;;;;;;5058890;28;19947;-80
2021/12/19 07:55:18;;;;;;;;;;;6.10;99.90;;;;;;5074107;28;19920;-79
2021/12/19 07:57:46;;;;;;;;;;;6.10;99.90;;;;;;5088104;28;19924;-80
2021/12/19 08:00:15;;;;;;;;;;;6.10;99.90;;;;;;5092812;28;19935;-80
2021/12/19 08:03:07;;;;;;;;;;;6.10;99.90;;;;;;5094585;28;20432;-79
2021/12/19 08:06:00;;;;;;;;;;;7.40;99.90;;;;;;5083783;28;19908;-80
2021/12/19 08:09:08;;;;;;;;;;;6.20;99.90;;;;;;5103776;28;19935;-80
2021/12/19 08:11:41;;;;;;;;;;;6.30;99.90;;;;;;5087302;28;19925;-80
2021/12/19 08:14:36;;;;;;;;;;;6.20;99.90;;;;;;5085844;28;19934;-79
2021/12/19 08:17:13;;;;;;;;;;;6.20;99.90;;;;;;5092429;28;20317;-80
2021/12/19 08:19:49;;;;;;;;;;;6.30;99.90;;;;;;5074198;28;19924;-80
2021/12/19 08:22:51;;;;;;;;;;;6.20;99.90;;;;;;5075374;28;19928;-80
2021/12/19 08:25:23;;;;;;;;;;;6.10;99.90;;;;;;5079716;28;19927;-80
2021/12/19 08:28:28;;;;;;;;;;;6.20;99.90;;;;;;5097065;28;19929;-79
2021/12/19 08:31:04;;;;;;;;;;;6.10;99.90;;;;;;5104240;28;19931;-80
2021/12/19 08:33:34;;;;;;;;;;;6.30;99.90;;;;;;5088825;28;19923;-80
2021/12/19 08:36:03;;;;;;;;;;;6.30;99.90;;;;;;5058215;28;19924;-80
2021/12/19 08:42:22;;;;;;;;;;;6.20;99.90;;;;;;5091746;28;19934;-80
2021/12/19 08:44:58;;;;;;;;;;;6.20;99.90;;;;;;5090096;28;19931;-81
2021/12/19 08:47:52;;;;;;;;;;;6.10;99.90;;;;;;5083491;28;19927;-81
2021/12/19 08:50:40;;;;;;;;;;;6.10;99.90;;;;;;5108094;28;19928;-84
2021/12/19 08:53:11;;;;;;;;;;;6.10;99.90;;;;;;5092683;28;19934;-82
2021/12/19 08:55:45;;;;;;;;;;;6.10;99.90;;;;;;5089670;28;19931;-80
2021/12/19 08:58:17;;;;;;;;;;;6.10;99.90;;;;;;5084075;28;19913;-81
2021/12/19 09:00:57;;;;;;;;;;;6.30;99.90;;;;;;5089327;28;20026;-80
2021/12/19 09:03:38;;;;;;;;;;;6.00;99.90;;;;;;5088974;28;19938;-81
2021/12/19 09:06:21;;;;;;;;;;;6.10;99.90;;;;;;5179980;22;20396;-80
2021/12/19 09:08:49;;;;;;;;;;;6.10;99.90;;;;;;5014990;28;19929;-81
2021/12/19 09:11:17;;;;;;;;;;;6.10;99.90;;;;;;5010414;28;19932;-81
2021/12/19 09:13:47;;;;;;;;;;;6.20;99.90;;;;;;5002025;28;19925;-80
2021/12/19 09:16:23;;;;;;;;;;;6.10;99.90;;;;;;4996664;28;19929;-78
2021/12/19 09:19:12;;;;;;;;;;;6.10;99.90;;;;;;5049131;28;19940;-80
2021/12/19 09:21:41;;;;;;;;;;;6.10;99.90;;;;;;5047620;28;20180;-82
2021/12/19 09:24:09;;;;;;;;;;;6.10;99.90;;;;;;4976003;28;19925;-82
2021/12/19 09:26:40;;;;;;;;;;;6.10;99.90;;;;;;4994944;28;19937;-82
2021/12/19 09:29:08;;;;;;;;;;;6.10;99.90;;;;;;5011284;28;19925;-84
2021/12/19 09:31:36;;;;;;;;;;;6.20;99.90;;;;;;5029216;28;19929;-83
2021/12/19 09:34:07;;;;;;;;;;;6.10;99.90;;;;;;5012271;28;19933;-82
2021/12/19 09:36:48;;;;;;;;;;;6.10;99.90;;;;;;5013822;28;19939;-83
2021/12/19 09:40:04;;;;;;;;;;;;;;;;;;;;;
2021/12/19 09:42:46;;;;;;;;;;;6.10;99.90;;;;;;5008974;28;19929;-83
2021/12/19 09:45:19;;;;;;;;;;;6.50;99.90;;;;;;5006469;28;19929;-82
2021/12/19 09:47:47;;;;;;;;;;;6.10;99.90;;;;;;4992213;28;19937;-83
2021/12/19 09:50:17;;;;;;;;;;;6.10;99.90;;;;;;5024114;28;19937;-83
2021/12/19 09:53:10;;;;;;;;;;;6.10;99.90;;;;;;4989948;28;19929;-84
2021/12/19 09:55:47;;;;;;;;;;;6.10;99.90;;;;;;5023355;28;19929;-81
2021/12/19 09:58:14;;;;;;;;;;;5.40;99.90;;;;;;5006844;28;20301;-83
2021/12/19 10:04:01;;;;;;;;;;;6.10;99.90;;;;;;5018286;28;19926;-83
2021/12/19 10:06:36;;;;;;;;;;;6.10;99.90;;;;;;5021897;28;19933;-85
2021/12/19 10:09:18;;;;;;;;;;;6.10;99.90;;;;;;5024421;28;19940;-82
2021/12/19 10:12:37;;;;;;;;;;;6.10;99.90;;;;;;5012016;28;19917;-79
2021/12/19 10:18:54;;;;;;;;;;;6.20;99.90;;;;;;5040168;28;19913;-81
2021/12/19 10:21:33;;;;;;;;;;;6.20;99.90;;;;;;5007602;28;19933;-82
2021/12/19 10:27:52;;;;;;;;;;;6.00;99.90;;;;;;5018227;28;20297;-83
2021/12/19 10:35:39;;;;;;;;;;;6.20;99.90;;;;;;4997671;28;19941;-83
2021/12/19 10:38:56;;;;;;;;;;;6.30;99.90;;;;;;4959770;29;19926;-85
2021/12/19 10:42:08;;;;;;;;;;;6.30;99.90;;;;;;4981090;28;19926;-83
2021/12/19 10:45:34;;;;;;;;;;;6.60;99.90;;;;;;4987831;28;19932;-85
2021/12/19 10:49:03;;;;;;;;;;;6.60;99.90;;;;;;4978216;28;19926;-83
2021/12/19 10:52:15;;;;;;;;;;;4.80;99.90;;;;;;5030889;28;19933;-84
2021/12/19 10:55:17;;;;;;;;;;;6.00;99.90;;;;;;5013902;28;19925;-84
2021/12/19 10:58:34;;;;;;;;;;;6.30;99.90;;;;;;4997250;28;20094;-82
2021/12/19 11:01:29;;;;;;;;;;;6.40;99.90;;;;;;5042246;28;19944;-84
2021/12/19 11:04:30;;;;;;;;;;;;;;;;;;;;;
2021/12/19 11:08:36;;;;;;;;;;;6.50;99.90;;;;;;5031897;28;19932;-83
2021/12/19 11:11:54;;;;;;;;;;;6.40;99.90;;;;;;5043609;28;19940;-83
2021/12/19 11:16:02;;;;;;;;;;;6.70;99.90;;;;;;5039429;28;20056;-83
2021/12/19 11:19:17;;;;;;;;;;;6.40;99.90;;;;;;5021772;28;19929;-84
2021/12/19 11:22:57;;;;;;;;;;;4.10;99.90;;;;;;4943451;29;19931;-83
2021/12/19 11:26:37;;;;;;;;;;;6.40;99.90;;;;;;4917171;29;19927;-82
2021/12/19 11:30:18;;;;;;;;;;;;;;;;;;;;;
2021/12/19 11:34:04;;;;;;;;;;;6.40;99.90;;;;;;4966903;28;19940;-82
2021/12/19 11:37:25;;;;;;;;;;;;;;;;;;;;;
2021/12/19 11:41:22;;;;;;;;;;;6.90;99.90;;;;;;4879822;29;19936;-83
2021/12/19 11:44:49;;;;;;;;;;;;;;;;;;;;;
2021/12/19 11:52:31;;;;;;;;;;;6.60;99.90;;;;;;4923155;29;19927;-84
2021/12/19 11:56:10;;;;;;;;;;;6.50;99.90;;;;;;4958657;29;19926;-83
2021/12/19 11:59:57;;;;;;;;;;;6.30;99.90;;;;;;4967306;29;19964;-83
2021/12/19 12:03:26;;;;;;;;;;;6.50;99.90;;;;;;4952617;28;19926;-83
2021/12/19 12:06:28;;;;;;;;;;;6.30;99.90;;;;;;5041977;28;20016;-83
2021/12/19 12:10:11;;;;;;;;;;;5.10;99.90;;;;;;5031581;28;19933;-83
2021/12/19 12:14:22;;;;;;;;;;;6.20;99.90;;;;;;5021075;28;19935;-83
2021/12/19 12:17:12;;;;;;;;;;;5.50;99.90;;;;;;5025634;28;19933;-84
2021/12/19 12:20:30;;;;;;;;;;;7.20;99.90;;;;;;4952838;28;20027;-84
2021/12/19 12:23:57;;;;;;;;;;;;;;;;;;;;;
2021/12/19 12:27:28;;;;;;;;;;;5.00;99.90;;;;;;4872963;29;19932;-83
2021/12/19 12:38:51;;;;;;;;;;;7.70;99.90;;;;;;4783200;29;19933;-85
2021/12/19 12:42:25;;;;;;;;;;;;;;;;;;;;;
2021/12/19 12:45:53;;;;;;;;;;;5.90;99.90;;;;;;4824139;29;20422;-84
2021/12/19 12:49:23;;;;;;;;;;;;;;;;;;;;;
2021/12/19 12:52:50;;;;;;;;;;;;;;;;;;;;;
2021/12/19 12:59:36;;;;;;;;;;;7.40;99.90;;;;;;4917199;29;19932;-84
2021/12/19 13:07:31;;;;;;;;;;;;;;;;;;;;;
2021/12/19 13:10:44;;;;;;;;;;;5.00;99.90;;;;;;4876850;29;19942;-85
2021/12/19 13:13:54;;;;;;;;;;;5.90;99.90;;;;;;4860959;29;19950;-82
2021/12/19 13:16:28;;;;;;;;;;;5.70;99.90;;;;;;4877206;29;19939;-84
2021/12/19 13:23:52;;;;;;;;;;;5.90;99.90;;;;;;4800317;29;19925;-85
2021/12/19 13:27:10;;;;;;;;;;;5.90;99.90;;;;;;4800756;29;19929;-85
2021/12/19 13:30:08;;;;;;;;;;;5.80;99.90;;;;;;4797497;29;21370;-83
2021/12/19 13:37:22;;;;;;;;;;;5.90;99.90;;;;;;4821897;29;19939;-83
2021/12/19 13:41:45;;;;;;;;;;;4.80;99.90;;;;;;4815404;29;20599;-84
2021/12/19 13:52:54;;;;;;;;;;;6.10;99.90;;;;;;4833478;29;19980;-86
2021/12/19 13:59:41;;;;;;;;;;;6.10;99.90;;;;;;4913100;28;19938;-82
2021/12/19 14:02:12;;;;;;;;;;;6.70;99.90;;;;;;4978179;28;19924;-82
2021/12/19 14:04:43;;;;;;;;;;;6.30;99.90;;;;;;5025541;28;19925;-83
2021/12/19 14:07:20;;;;;;;;;;;6.10;99.90;;;;;;5006749;28;19925;-84
2021/12/19 14:10:02;;;;;;;;;;;5.70;99.90;;;;;;5040045;28;19936;-83
2021/12/19 14:13:13;;;;;;;;;;;6.10;99.90;;;;;;5020959;28;19932;-81
2021/12/19 14:20:21;;;;;;;;;;;6.10;99.90;;;;;;5042350;28;19925;-82
2021/12/19 14:27:19;;;;;;;;;;;6.00;99.90;;;;;;5024802;28;19987;-83
2021/12/19 14:34:03;;;;;;;;;;;7.00;99.90;;;;;;5043914;28;19936;-83
2021/12/19 14:36:55;;;;;;;;;;;6.00;99.90;;;;;;5021476;28;19929;-82
2021/12/19 14:40:25;;;;;;;;;;;6.20;99.90;;;;;;5020524;28;19945;-85
2021/12/19 14:43:58;;;;;;;;;;;6.00;99.90;;;;;;5034719;28;20724;-83
2021/12/19 14:46:31;;;;;;;;;;;4.20;99.90;;;;;;5025485;28;20006;-83
2021/12/19 14:49:10;;;;;;;;;;;6.00;99.90;;;;;;5023440;28;20003;-82
2021/12/19 14:51:57;;;;;;;;;;;5.90;99.90;;;;;;5022044;28;19929;-84
2021/12/19 14:54:51;;;;;;;;;;;5.90;99.90;;;;;;5024530;28;19936;-82
2021/12/19 14:57:45;;;;;;;;;;;5.80;99.90;;;;;;5037809;28;19933;-82
2021/12/19 15:00:14;;;;;;;;;;;5.90;99.90;;;;;;5036481;28;20313;-85
2021/12/19 15:03:08;;;;;;;;;;;5.30;99.90;;;;;;5008020;28;19929;-87
2021/12/19 15:05:38;;;;;;;;;;;5.80;99.90;;;;;;5020564;28;21429;-83
2021/12/19 15:08:09;;;;;;;;;;;5.80;99.90;;;;;;5035784;28;19932;-81
2021/12/19 15:10:37;;;;;;;;;;;5.80;99.90;;;;;;5021447;28;19940;-82
2021/12/19 15:13:08;;;;;;;;;;;5.80;99.90;;;;;;5023083;28;19932;-82
2021/12/19 15:15:36;;;;;;;;;;;5.70;99.90;;;;;;5021524;28;19933;-83
2021/12/19 15:18:05;;;;;;;;;;;5.70;99.90;;;;;;5019915;28;19936;-82
2021/12/19 15:20:54;;;;;;;;;;;5.00;99.90;;;;;;5021567;28;19925;-84
2021/12/19 15:23:24;;;;;;;;;;;5.50;99.90;;;;;;5021271;28;19939;-82
2021/12/19 15:25:56;;;;;;;;;;;5.60;99.90;;;;;;5008785;28;19941;-84
2021/12/19 15:28:28;;;;;;;;;;;6.00;99.90;;;;;;5041569;28;19935;-85
2021/12/19 15:30:57;;;;;;;;;;;5.60;99.90;;;;;;5021189;28;19925;-80
2021/12/19 15:33:29;;;;;;;;;;;5.50;99.90;;;;;;5024584;28;19940;-83
2021/12/19 15:36:03;;;;;;;;;;;5.70;99.90;;;;;;5025263;28;19939;-80
2021/12/19 15:38:36;;;;;;;;;;;5.60;99.90;;;;;;5023807;28;19929;-83
2021/12/19 15:41:06;;;;;;;;;;;5.70;99.90;;;;;;5040008;28;19929;-82
2021/12/19 15:44:00;;;;;;;;;;;5.70;99.90;;;;;;5040941;28;19929;-81
2021/12/19 15:46:29;;;;;;;;;;;4.70;99.90;;;;;;5023026;28;19933;-82
2021/12/19 15:48:57;;;;;;;;;;;5.60;99.90;;;;;;5025348;28;19948;-82
2021/12/19 15:51:28;;;;;;;;;;;5.50;99.90;;;;;;5037817;28;19933;-82
2021/12/19 15:54:29;;;;;;;;;;;5.50;99.90;;;;;;5022364;28;19925;-82
2021/12/19 15:57:02;;;;;;;;;;;5.20;99.90;;;;;;5038239;28;19925;-83
2021/12/19 15:59:33;;;;;;;;;;;5.50;99.90;;;;;;5022187;28;19929;-82
2021/12/19 16:02:03;;;;;;;;;;;5.60;99.90;;;;;;5037818;28;19932;-81
2021/12/19 16:04:34;;;;;;;;;;;5.40;99.90;;;;;;5021493;28;19944;-81
2021/12/19 16:07:02;;;;;;;;;;;5.40;99.90;;;;;;5021437;28;19929;-84
2021/12/19 16:09:36;;;;;;;;;;;5.30;99.90;;;;;;5023183;28;19948;-83
2021/12/19 16:12:08;;;;;;;;;;;5.30;99.90;;;;;;5039156;28;19929;-83
2021/12/19 16:14:37;;;;;;;;;;;5.30;99.90;;;;;;5038821;28;19962;-82
2021/12/19 16:17:06;;;;;;;;;;;5.20;99.90;;;;;;5002308;28;20225;-83
2021/12/19 16:19:45;;;;;;;;;;;5.00;99.90;;;;;;5040397;28;19929;-85
2021/12/19 16:22:21;;;;;;;;;;;4.20;99.90;;;;;;5022972;28;19928;-83
2021/12/19 16:24:59;;;;;;;;;;;5.10;99.90;;;;;;5021606;28;19936;-80
2021/12/19 16:27:28;;;;;;;;;;;5.10;99.90;;;;;;5019278;28;19925;-82
2021/12/19 16:29:57;;;;;;;;;;;5.00;99.90;;;;;;5032800;28;19933;-83
2021/12/19 16:32:26;;;;;;;;;;;4.90;99.90;;;;;;5020463;28;19944;-81
2021/12/19 16:34:55;;;;;;;;;;;6.70;99.90;;;;;;5005815;28;19925;-83
2021/12/19 16:37:30;;;;;;;;;;;4.80;99.90;;;;;;5034618;28;19933;-85
2021/12/19 16:47:26;;;;;;;;;;;4.70;99.90;;;;;;5040021;28;19939;-80
2021/12/19 16:49:54;;;;;;;;;;;5.00;99.90;;;;;;5023402;28;19960;-82
2021/12/19 16:52:21;;;;;;;;;;;3.80;99.90;;;;;;5019715;28;19935;-82
2021/12/19 16:55:02;;;;;;;;;;;4.90;99.90;;;;;;5024044;28;19925;-81
2021/12/19 16:57:32;;;;;;;;;;;4.90;99.90;;;;;;5041668;28;20277;-80
2021/12/19 17:00:29;;;;;;;;;;;4.50;99.90;;;;;;5019673;28;19934;-82
2021/12/19 17:03:06;;;;;;;;;;;4.70;99.90;;;;;;5030678;28;19936;-81
2021/12/19 17:06:17;;;;;;;;;;;4.60;99.90;;;;;;5041779;28;19936;-81
2021/12/19 17:08:48;;;;;;;;;;;4.60;99.90;;;;;;5025978;28;20659;-81
2021/12/19 17:18:17;;;;;;;;;;;4.50;99.90;;;;;;5027456;28;19933;-82
2021/12/19 17:24:04;;;;;;;;;;;4.50;99.90;;;;;;5030873;28;19976;-81
2021/12/19 17:30:12;;;;;;;;;;;4.70;99.90;;;;;;5043079;28;20029;-81
2021/12/19 17:32:49;;;;;;;;;;;4.40;99.90;;;;;;5047318;28;19929;-82
2021/12/19 17:35:28;;;;;;;;;;;5.50;99.90;;;;;;5046044;28;19947;-82
2021/12/19 17:38:00;;;;;;;;;;;4.60;99.90;;;;;;5025064;28;20290;-81
2021/12/19 17:43:06;;;;;;;;;;;4.70;99.90;;;;;;5010903;28;19933;-81
2021/12/19 17:48:54;;;;;;;;;;;4.80;99.90;;;;;;5027035;28;19932;-83
2021/12/19 17:51:26;;;;;;;;;;;4.80;99.90;;;;;;5044427;28;19934;-82
2021/12/19 17:53:55;;;;;;;;;;;4.80;99.90;;;;;;5026609;28;19925;-84
2021/12/19 17:56:30;;;;;;;;;;;4.80;99.90;;;;;;5043324;28;19940;-81
2021/12/19 17:59:07;;;;;;;;;;;4.90;99.90;;;;;;5027280;28;20451;-83
2021/12/19 18:01:36;;;;;;;;;;;4.80;99.90;;;;;;5040403;28;19933;-84
2021/12/19 18:04:07;;;;;;;;;;;4.80;99.90;;;;;;5023299;28;19937;-84
2021/12/19 18:06:38;;;;;;;;;;;4.90;99.90;;;;;;5009001;28;19912;-82
2021/12/19 18:09:15;;;;;;;;;;;5.00;99.90;;;;;;5042220;28;19925;-83
2021/12/19 18:11:45;;;;;;;;;;;5.10;99.90;;;;;;5042872;28;20136;-83
2021/12/19 18:14:14;;;;;;;;;;;5.60;99.90;;;;;;5043301;28;20633;-82
2021/12/19 18:16:42;;;;;;;;;;;5.10;99.90;;;;;;5044218;28;19943;-83
2021/12/19 18:22:28;;;;;;;;;;;5.20;99.90;;;;;;5023487;28;19933;-81
2021/12/19 18:24:56;;;;;;;;;;;5.10;99.90;;;;;;5024308;28;19939;-83
2021/12/19 18:27:24;;;;;;;;;;;3.90;99.90;;;;;;5039667;28;19928;-82
2021/12/19 18:29:52;;;;;;;;;;;5.30;99.90;;;;;;5038077;28;19929;-82
2021/12/19 18:32:23;;;;;;;;;;;5.40;99.90;;;;;;5024966;28;19936;-84
2021/12/19 18:35:21;;;;;;;;;;;5.90;99.90;;;;;;5009986;28;19929;-83
2021/12/19 18:37:53;;;;;;;;;;;5.10;99.90;;;;;;5027965;28;19936;-82
2021/12/19 18:40:22;;;;;;;;;;;5.40;99.90;;;;;;5005565;28;19925;-83
2021/12/19 18:43:05;;;;;;;;;;;5.40;99.90;;;;;;5023033;28;19929;-82
2021/12/19 18:45:39;;;;;;;;;;;5.50;99.90;;;;;;5007370;28;19925;-84
2021/12/19 18:56:45;;;;;;;;;;;5.60;99.90;;;;;;5021582;28;19936;-82
2021/12/19 18:59:16;;;;;;;;;;;5.70;99.90;;;;;;5021435;28;20920;-81
2021/12/19 19:01:47;;;;;;;;;;;5.60;99.90;;;;;;5022505;28;19932;-84
2021/12/19 19:04:38;;;;;;;;;;;6.40;99.90;;;;;;5020780;28;19925;-83
2021/12/19 19:07:12;;;;;;;;;;;5.80;99.90;;;;;;5019130;28;19925;-83
2021/12/19 19:09:44;;;;;;;;;;;5.70;99.90;;;;;;5020866;28;19933;-83
2021/12/19 19:12:16;;;;;;;;;;;5.80;99.90;;;;;;5038581;28;19933;-83
2021/12/19 19:14:47;;;;;;;;;;;6.20;99.90;;;;;;5036412;28;19940;-81
2021/12/19 19:17:17;;;;;;;;;;;6.00;99.90;;;;;;5039612;28;19933;-84
2021/12/19 19:19:48;;;;;;;;;;;5.80;99.90;;;;;;5006160;28;19937;-82
2021/12/19 19:22:17;;;;;;;;;;;5.80;99.90;;;;;;5023593;28;19933;-81
2021/12/19 19:24:47;;;;;;;;;;;5.90;99.90;;;;;;5024518;28;20012;-82
2021/12/19 19:27:17;;;;;;;;;;;5.90;99.90;;;;;;5023867;28;19925;-83
2021/12/19 19:29:45;;;;;;;;;;;6.30;99.90;;;;;;5040377;28;19940;-83
2021/12/19 19:32:14;;;;;;;;;;;6.00;99.90;;;;;;5022842;28;19944;-81
2021/12/19 19:34:46;;;;;;;;;;;6.00;99.90;;;;;;5023463;28;19931;-81
2021/12/19 19:37:22;;;;;;;;;;;6.00;99.90;;;;;;5045117;28;19935;-84
2021/12/19 19:40:19;;;;;;;;;;;6.10;99.90;;;;;;5043094;28;19932;-82
2021/12/19 19:44:04;;;;;;;;;;;6.10;99.90;;;;;;5028438;28;19935;-84
2021/12/19 19:49:42;;;;;;;;;;;6.10;99.90;;;;;;4994867;28;19932;-85
2021/12/19 19:52:29;;;;;;;;;;;5.80;99.90;;;;;;5026381;28;19929;-82
2021/12/19 19:55:09;;;;;;;;;;;6.10;99.90;;;;;;5041383;28;19933;-82
2021/12/19 19:57:45;;;;;;;;;;;5.20;99.90;;;;;;5023477;28;19925;-82
2021/12/19 20:00:22;;;;;;;;;;;6.70;99.90;;;;;;5040066;28;19941;-83
2021/12/19 20:03:07;;;;;;;;;;;6.40;99.90;;;;;;5041606;28;19943;-83
2021/12/19 20:05:45;;;;;;;;;;;6.20;99.90;;;;;;5018062;28;19932;-83
2021/12/19 20:08:24;;;;;;;;;;;6.20;99.90;;;;;;4991649;28;19933;-83
2021/12/19 20:11:12;;;;;;;;;;;6.40;99.90;;;;;;5025728;28;19939;-84
2021/12/19 20:14:32;;;;;;;;;;;6.30;99.90;;;;;;4977544;28;19940;-83
2021/12/19 20:17:38;;;;;;;;;;;6.60;99.90;;;;;;5040687;28;19951;-83
2021/12/19 20:20:17;;;;;;;;;;;6.40;99.90;;;;;;5024257;28;19940;-81
2021/12/19 20:22:50;;;;;;;;;;;6.30;99.90;;;;;;5041666;28;19933;-81
2021/12/19 20:25:27;;;;;;;;;;;7.10;99.90;;;;;;5042591;28;19933;-82
2021/12/19 20:28:04;;;;;;;;;;;6.50;99.90;;;;;;5024132;28;19940;-82